Time;durP1;ratioP1;P1;durP2;ratioP2;P2;SDS_P1;SDS_P2;PMS_P1;PMS_P2;Temp;Humidity;BMP_temperature;BMP_pressure;BME280_temperature;BME280_humidity;BME280_pressure;Samples;Min_cycle;Max_cycle;Signal;HPM_P1;HPM_P2
2022/01/28 00:00:28;;;;;;;10.10;2.13;;;6.40;83.90;;;;;;5074975;28;20017;-37
2022/01/28 00:03:04;;;;;;;10.27;2.17;;;6.40;84.50;;;;;;5074544;28;20029;-37
2022/01/28 00:05:31;;;;;;;12.38;2.38;;;6.40;83.90;;;;;;5074591;28;20090;-36
2022/01/28 00:07:57;;;;;;;8.90;2.28;;;6.40;83.80;;;;;;5074825;28;20047;-38
2022/01/28 00:10:25;;;;;;;11.23;2.03;;;6.40;83.70;;;;;;5074468;28;20024;-36
2022/01/28 00:15:38;;;;;;;12.32;1.92;;;6.50;83.50;;;;;;5074663;28;20039;-36
2022/01/28 00:36:32;;;;;;;11.68;2.22;;;6.50;83.00;;;;;;5074222;28;20450;-37
2022/01/28 00:39:32;;;;;;;6.88;1.90;;;6.40;83.00;;;;;;5074321;28;20040;-35
2022/01/28 00:41:58;;;;;;;8.18;1.95;;;6.30;82.80;;;;;;5073860;28;20028;-36
2022/01/28 00:44:24;;;;;;;14.65;2.42;;;6.30;82.90;;;;;;5073866;28;20028;-36
2022/01/28 00:46:50;;;;;;;9.68;2.20;;;6.30;82.90;;;;;;5073865;28;20023;-36
2022/01/28 00:49:15;;;;;;;11.63;1.98;;;6.30;82.90;;;;;;5074081;28;20091;-36
2022/01/28 00:51:41;;;;;;;13.23;2.55;;;6.20;82.80;;;;;;5073690;28;20095;-36
2022/01/28 00:54:06;;;;;;;12.30;2.30;;;6.20;82.70;;;;;;5073712;28;20025;-42
2022/01/28 00:56:32;;;;;;;11.13;2.00;;;6.20;82.70;;;;;;5073484;28;20032;-35
2022/01/28 00:58:57;;;;;;;9.80;1.80;;;6.20;82.60;;;;;;5072353;28;20028;-38
2022/01/28 01:01:23;;;;;;;10.82;2.05;;;6.20;82.70;;;;;;5073586;28;20108;-36
2022/01/28 01:03:49;;;;;;;7.45;1.98;;;6.20;82.60;;;;;;5073440;28;20024;-36
2022/01/28 01:06:15;;;;;;;9.90;1.98;;;6.20;82.60;;;;;;5073491;28;20035;-37
2022/01/28 01:08:40;;;;;;;10.95;1.77;;;6.10;82.70;;;;;;5073428;28;20021;-36
2022/01/28 01:11:07;;;;;;;5.97;1.52;;;6.10;82.70;;;;;;5073514;28;20024;-38
2022/01/28 01:13:38;;;;;;;9.73;1.65;;;6.10;82.70;;;;;;5073614;28;20025;-36
2022/01/28 01:16:05;;;;;;;11.15;2.15;;;6.10;82.70;;;;;;5073509;28;20499;-36
2022/01/28 01:21:14;;;;;;;10.32;1.90;;;6.10;82.60;;;;;;5073691;28;20070;-38
2022/01/28 01:23:47;;;;;;;15.60;2.90;;;6.10;82.50;;;;;;5073341;28;20032;-36
2022/01/28 01:26:14;;;;;;;11.07;2.42;;;6.10;82.50;;;;;;5073576;28;20028;-38
2022/01/28 01:28:41;;;;;;;13.07;2.05;;;6.10;82.60;;;;;;5073459;28;20479;-36
2022/01/28 01:31:12;;;;;;;9.20;1.80;;;6.00;82.50;;;;;;5073481;28;20484;-37
2022/01/28 01:33:44;;;;;;;7.55;1.60;;;6.10;82.60;;;;;;5072935;28;20025;-37
2022/01/28 01:36:09;;;;;;;10.38;2.10;;;6.00;82.70;;;;;;5072940;28;20052;-37
2022/01/28 01:38:38;;;;;;;12.75;2.13;;;6.00;82.70;;;;;;5073016;28;20012;-36
2022/01/28 01:41:09;;;;;;;9.68;1.90;;;6.00;82.70;;;;;;5073341;28;20073;-37
2022/01/28 01:43:57;;;;;;;13.48;1.88;;;6.00;82.80;;;;;;5073250;28;20461;-37
2022/01/28 01:54:16;;;;;;;13.32;2.33;;;6.00;82.70;;;;;;5072949;28;20039;-38
2022/01/28 01:56:42;;;;;;;11.18;2.33;;;6.00;82.70;;;;;;5071505;28;20024;-37
2022/01/28 01:59:09;;;;;;;10.70;2.70;;;6.00;82.60;;;;;;5073142;28;20021;-38
2022/01/28 02:01:35;;;;;;;7.28;1.63;;;6.00;82.60;;;;;;5072916;28;20384;-36
2022/01/28 02:04:01;;;;;;;7.20;1.80;;;6.00;82.70;;;;;;5072949;28;20020;-37
2022/01/28 02:06:26;;;;;;;8.52;1.90;;;6.00;82.80;;;;;;5072892;28;20597;-37
2022/01/28 02:08:52;;;;;;;7.10;1.40;;;5.90;82.80;;;;;;5072849;28;20100;-37
2022/01/28 02:11:18;;;;;;;7.05;1.60;;;5.90;82.90;;;;;;5072867;28;20024;-38
2022/01/28 02:13:49;;;;;;;9.48;2.00;;;5.90;83.00;;;;;;5073238;28;20461;-36
2022/01/28 02:16:15;;;;;;;7.35;1.40;;;5.90;83.00;;;;;;5072825;28;20021;-36
2022/01/28 02:18:41;;;;;;;11.80;2.05;;;5.90;83.00;;;;;;5073149;28;20493;-38
2022/01/28 02:21:10;;;;;;;9.55;1.85;;;5.90;83.00;;;;;;5072931;28;20051;-37
2022/01/28 02:23:37;;;;;;;9.80;1.30;;;5.90;82.90;;;;;;5071364;28;20059;-36
2022/01/28 02:26:04;;;;;;;5.43;1.30;;;5.90;82.90;;;;;;5072941;28;20059;-36
2022/01/28 02:28:33;;;;;;;7.95;1.70;;;5.90;82.90;;;;;;5072864;28;20360;-36
2022/01/28 02:31:02;;;;;;;8.95;1.75;;;6.00;82.90;;;;;;5072949;28;20020;-38
2022/01/28 02:33:27;;;;;;;11.95;2.13;;;5.90;82.90;;;;;;5072805;28;20392;-36
2022/01/28 02:35:53;;;;;;;6.53;1.75;;;5.90;82.80;;;;;;5072234;28;20037;-36
2022/01/28 02:38:21;;;;;;;7.78;1.45;;;5.90;82.70;;;;;;5072506;28;20058;-36
2022/01/28 02:40:59;;;;;;;8.23;1.50;;;6.00;82.60;;;;;;5072473;28;20051;-36
2022/01/28 02:45:54;;;;;;;11.13;1.38;;;5.90;82.60;;;;;;5072684;28;20119;-37
2022/01/28 02:48:25;;;;;;;7.95;1.40;;;6.00;82.60;;;;;;5072945;28;20013;-36
2022/01/28 02:53:40;;;;;;;11.05;2.40;;;6.00;82.60;;;;;;5072642;28;20062;-36
2022/01/28 02:56:33;;;;;;;8.63;1.92;;;5.90;82.50;;;;;;5072601;28;20029;-36
2022/01/28 02:58:58;;;;;;;10.07;2.00;;;5.90;82.50;;;;;;5072879;28;20021;-36
2022/01/28 03:01:24;;;;;;;8.00;1.83;;;6.00;82.50;;;;;;5075831;28;20031;-37
2022/01/28 03:03:51;;;;;;;9.30;2.10;;;6.00;82.50;;;;;;5074535;28;20476;-36
2022/01/28 03:06:19;;;;;;;11.52;2.33;;;6.00;82.50;;;;;;5076078;28;20024;-36
2022/01/28 03:09:15;;;;;;;10.82;2.08;;;6.00;82.60;;;;;;5075679;28;20091;-33
2022/01/28 03:19:30;;;;;;;12.20;1.83;;;6.00;82.50;;;;;;5075786;28;20111;-36
2022/01/28 03:21:57;;;;;;;5.40;1.30;;;6.00;82.50;;;;;;5074157;28;20021;-38
2022/01/28 03:24:27;;;;;;;10.98;1.85;;;6.00;82.50;;;;;;5075531;28;20103;-36
2022/01/28 03:27:00;;;;;;;12.18;2.15;;;6.00;82.60;;;;;;5075404;28;20036;-36
2022/01/28 03:29:26;;;;;;;13.38;2.40;;;6.00;82.60;;;;;;5075451;28;20065;-36
2022/01/28 03:31:51;;;;;;;8.98;1.77;;;6.00;82.70;;;;;;5075195;28;20418;-37
2022/01/28 03:34:17;;;;;;;7.00;1.50;;;5.90;82.70;;;;;;5075114;28;20048;-37
2022/01/28 03:36:43;;;;;;;7.88;1.65;;;5.90;82.70;;;;;;5075133;28;20074;-36
2022/01/28 03:39:10;;;;;;;10.82;1.98;;;6.00;82.70;;;;;;5075388;28;20021;-37
2022/01/28 03:41:36;;;;;;;7.70;1.70;;;6.00;82.80;;;;;;5075159;28;20024;-36
2022/01/28 03:44:02;;;;;;;14.25;2.28;;;5.90;82.70;;;;;;5075022;28;20384;-36
2022/01/28 03:46:29;;;;;;;6.07;1.58;;;5.90;82.70;;;;;;5075081;28;20027;-36
2022/01/28 03:48:55;;;;;;;10.52;1.80;;;6.00;82.80;;;;;;5074947;28;20029;-36
2022/01/28 03:51:21;;;;;;;8.82;1.40;;;5.90;82.70;;;;;;5074932;28;20432;-36
2022/01/28 03:53:48;;;;;;;10.38;1.65;;;5.90;82.80;;;;;;5074927;28;20024;-36
2022/01/28 03:56:14;;;;;;;4.28;1.15;;;5.90;82.80;;;;;;5075011;28;20029;-36
2022/01/28 03:58:40;;;;;;;9.57;1.63;;;5.90;82.90;;;;;;5074622;28;20427;-36
2022/01/28 04:01:13;;;;;;;10.60;1.60;;;5.90;82.90;;;;;;5074667;28;20108;-37
2022/01/28 04:03:46;;;;;;;4.28;1.40;;;5.90;82.90;;;;;;5074527;28;20027;-36
2022/01/28 04:11:36;;;;;;;5.30;1.30;;;5.80;83.10;;;;;;5074583;28;20085;-36
2022/01/28 04:14:34;;;;;;;4.55;1.15;;;5.80;83.10;;;;;;5074731;28;20020;-36
2022/01/28 04:19:32;;;;;;;8.27;2.00;;;5.80;83.30;;;;;;5074765;28;20387;-38
2022/01/28 04:21:57;;;;;;;7.75;1.40;;;5.80;83.30;;;;;;5074321;28;20556;-36
2022/01/28 04:24:23;;;;;;;10.27;1.80;;;5.80;83.30;;;;;;5074296;28;20092;-36
2022/01/28 04:26:48;;;;;;;7.38;1.70;;;5.80;83.20;;;;;;5074437;28;20400;-37
2022/01/28 04:29:14;;;;;;;12.60;2.20;;;5.90;83.20;;;;;;5074212;28;20095;-38
2022/01/28 04:31:43;;;;;;;12.43;1.80;;;5.90;83.20;;;;;;5072722;28;20119;-36
2022/01/28 04:34:10;;;;;;;10.30;2.00;;;5.90;83.10;;;;;;5074198;28;20081;-36
2022/01/28 04:36:41;;;;;;;12.15;2.00;;;5.90;83.10;;;;;;5074071;28;20031;-36
2022/01/28 04:39:22;;;;;;;9.38;1.40;;;5.90;83.00;;;;;;5074014;28;20017;-36
2022/01/28 04:44:22;;;;;;;9.57;1.70;;;5.90;83.10;;;;;;5073924;28;20460;-35
2022/01/28 04:46:58;;;;;;;10.70;1.52;;;5.80;83.10;;;;;;5074059;28;20028;-36
2022/01/28 04:49:37;;;;;;;10.40;1.65;;;5.80;83.20;;;;;;5073835;28;20017;-38
2022/01/28 04:55:16;;;;;;;7.95;1.52;;;5.80;83.30;;;;;;5031647;28;20161;-36
2022/01/28 05:26:33;;;;;;;9.30;1.67;;;5.60;83.80;;;;;;5073572;28;20031;-39
2022/01/28 05:28:59;;;;;;;13.68;1.70;;;5.60;83.70;;;;;;5072336;28;20032;-38
2022/01/28 05:31:24;;;;;;;8.88;1.75;;;5.60;83.70;;;;;;5073161;28;20020;-39
2022/01/28 05:33:50;;;;;;;7.70;1.20;;;5.60;83.80;;;;;;5073072;28;20029;-38
2022/01/28 05:36:16;;;;;;;7.00;1.63;;;5.50;83.80;;;;;;5072840;28;20047;-34
2022/01/28 05:38:42;;;;;;;8.52;1.27;;;5.50;83.80;;;;;;5073291;28;20104;-38
2022/01/28 05:41:08;;;;;;;9.88;1.67;;;5.50;83.90;;;;;;5071793;28;20104;-36
2022/01/28 05:43:33;;;;;;;4.45;1.33;;;5.50;83.90;;;;;;5072962;28;20147;-36
2022/01/28 05:45:59;;;;;;;6.88;1.80;;;5.50;84.00;;;;;;5072947;28;20028;-37
2022/01/28 05:48:24;;;;;;;6.78;1.23;;;5.50;84.00;;;;;;5072983;28;20028;-36
2022/01/28 05:50:50;;;;;;;7.78;1.60;;;5.50;84.10;;;;;;5072994;28;20032;-36
2022/01/28 05:53:16;;;;;;;6.18;1.48;;;5.50;84.10;;;;;;5072983;28;20025;-38
2022/01/28 05:55:41;;;;;;;5.45;1.80;;;5.40;84.10;;;;;;5072819;28;20107;-38
2022/01/28 05:58:07;;;;;;;7.38;1.58;;;5.50;84.20;;;;;;5072931;28;20048;-38
2022/01/28 06:00:33;;;;;;;8.60;1.50;;;5.50;84.20;;;;;;5073141;28;20012;-35
2022/01/28 06:02:58;;;;;;;9.10;1.50;;;5.40;84.20;;;;;;5072842;28;20108;-36
2022/01/28 06:05:30;;;;;;;6.43;1.42;;;5.40;84.20;;;;;;5072981;28;20029;-39
2022/01/28 06:07:57;;;;;;;5.05;1.23;;;5.50;84.30;;;;;;5072706;28;20028;-38
2022/01/28 06:10:22;;;;;;;8.00;1.20;;;5.50;84.20;;;;;;5072825;28;20498;-37
2022/01/28 06:12:48;;;;;;;8.75;1.40;;;5.60;84.20;;;;;;5072786;28;20021;-38
2022/01/28 06:15:14;;;;;;;9.23;1.70;;;5.60;84.00;;;;;;5072726;28;20291;-38
2022/01/28 06:17:40;;;;;;;7.13;1.55;;;5.70;84.00;;;;;;5072711;28;20471;-36
2022/01/28 06:20:08;;;;;;;8.65;1.83;;;5.70;83.90;;;;;;5072801;28;20066;-37
2022/01/28 06:22:42;;;;;;;7.38;1.10;;;5.80;83.80;;;;;;5072661;28;20384;-36
2022/01/28 06:25:09;;;;;;;5.57;1.08;;;5.90;83.80;;;;;;5072957;28;20052;-36
2022/01/28 06:27:35;;;;;;;6.78;1.55;;;5.90;83.70;;;;;;5072653;28;20021;-37
2022/01/28 06:30:04;;;;;;;5.80;1.52;;;5.90;83.50;;;;;;5072603;28;20472;-37
2022/01/28 06:32:31;;;;;;;7.55;1.60;;;6.00;83.50;;;;;;5072510;28;20046;-38
2022/01/28 06:34:56;;;;;;;6.80;1.25;;;6.00;83.50;;;;;;5074558;28;20052;-38
2022/01/28 06:37:22;;;;;;;8.45;2.45;;;6.10;83.50;;;;;;5076234;28;20104;-37
2022/01/28 06:39:48;;;;;;;7.93;1.33;;;6.10;83.40;;;;;;5076275;28;20021;-38
2022/01/28 06:42:13;;;;;;;6.60;1.45;;;6.10;83.40;;;;;;5076395;28;20032;-36
2022/01/28 06:44:39;;;;;;;6.55;1.52;;;6.20;83.30;;;;;;5074881;28;20047;-36
2022/01/28 06:47:05;;;;;;;4.43;1.55;;;6.20;83.30;;;;;;5076081;28;20480;-37
2022/01/28 06:49:31;;;;;;;5.88;1.27;;;6.20;83.30;;;;;;5076271;28;20073;-39
2022/01/28 06:51:57;;;;;;;5.97;1.48;;;6.20;83.30;;;;;;5075981;28;20031;-37
2022/01/28 06:54:23;;;;;;;5.75;1.60;;;6.20;83.30;;;;;;5075995;28;20376;-37
2022/01/28 06:56:48;;;;;;;9.32;1.77;;;6.20;83.20;;;;;;5075818;28;20033;-37
2022/01/28 06:59:15;;;;;;;10.20;1.80;;;6.20;83.20;;;;;;5075794;28;20473;-37
2022/01/28 07:01:40;;;;;;;7.45;2.10;;;6.10;83.30;;;;;;5075609;28;20036;-36
2022/01/28 07:04:06;;;;;;;7.75;1.75;;;6.00;84.00;;;;;;5075794;28;20021;-36
2022/01/28 07:06:31;;;;;;;7.07;1.92;;;6.00;84.20;;;;;;5075555;28;20334;-36
2022/01/28 07:08:57;;;;;;;7.72;1.60;;;6.00;83.60;;;;;;5075534;28;20460;-36
2022/01/28 07:11:23;;;;;;;9.45;1.85;;;6.00;83.60;;;;;;5075941;28;20436;-36
2022/01/28 07:13:48;;;;;;;6.93;1.70;;;6.10;83.50;;;;;;5075467;28;20051;-36
2022/01/28 07:16:14;;;;;;;7.72;2.17;;;6.10;83.50;;;;;;5075453;28;20020;-38
2022/01/28 07:18:39;;;;;;;10.07;1.90;;;6.00;83.40;;;;;;5075511;28;20028;-37
2022/01/28 07:21:05;;;;;;;13.43;2.00;;;6.00;83.40;;;;;;5075565;28;20027;-36
2022/01/28 07:23:30;;;;;;;7.30;1.60;;;6.10;83.40;;;;;;5075583;28;20076;-38
2022/01/28 07:25:56;;;;;;;6.85;1.52;;;6.10;83.40;;;;;;5075363;28;20073;-36
2022/01/28 07:28:23;;;;;;;5.97;1.83;;;6.10;83.40;;;;;;5075622;28;20013;-37
2022/01/28 07:30:49;;;;;;;9.77;2.28;;;6.10;83.40;;;;;;5075559;28;20016;-37
2022/01/28 07:33:15;;;;;;;7.72;1.95;;;6.00;83.40;;;;;;5075216;28;20502;-37
2022/01/28 07:35:40;;;;;;;8.52;1.80;;;6.00;83.50;;;;;;5075100;28;20488;-37
2022/01/28 07:38:06;;;;;;;5.57;2.00;;;6.00;83.50;;;;;;5075407;28;20066;-36
2022/01/28 07:40:32;;;;;;;8.93;2.00;;;6.00;83.60;;;;;;5075117;28;20021;-37
2022/01/28 07:42:57;;;;;;;7.85;1.80;;;6.10;83.60;;;;;;5074985;28;20507;-38
2022/01/28 07:45:24;;;;;;;11.27;2.22;;;6.10;83.50;;;;;;5074776;28;20028;-37
2022/01/28 07:47:50;;;;;;;9.60;1.83;;;6.10;83.40;;;;;;5074937;28;20020;-41
2022/01/28 07:50:16;;;;;;;10.98;2.35;;;6.10;83.30;;;;;;5074895;28;20025;-37
2022/01/28 07:52:42;;;;;;;8.70;2.30;;;6.10;83.30;;;;;;5075121;28;20051;-37
2022/01/28 07:55:12;;;;;;;5.95;1.70;;;6.10;83.30;;;;;;5074716;28;20021;-44
2022/01/28 07:57:38;;;;;;;5.60;1.95;;;6.00;83.30;;;;;;5075003;28;20029;-39
2022/01/28 08:00:06;;;;;;;12.27;2.17;;;6.00;83.50;;;;;;5074751;28;20016;-38
2022/01/28 08:02:32;;;;;;;8.32;2.80;;;6.00;83.50;;;;;;5074618;28;20021;-39
2022/01/28 08:04:57;;;;;;;8.27;2.10;;;6.00;83.60;;;;;;5074878;28;20479;-38
2022/01/28 08:07:23;;;;;;;10.05;2.33;;;6.00;83.50;;;;;;5074647;28;20066;-38
2022/01/28 08:09:48;;;;;;;5.97;2.13;;;6.10;83.40;;;;;;5074569;28;20039;-39
2022/01/28 08:12:14;;;;;;;5.63;1.88;;;6.00;83.30;;;;;;5074544;28;20056;-39
2022/01/28 08:14:40;;;;;;;9.77;2.00;;;6.00;83.30;;;;;;5073152;28;20029;-36
2022/01/28 08:17:05;;;;;;;7.93;1.98;;;6.00;83.40;;;;;;5074386;28;20535;-38
2022/01/28 08:19:31;;;;;;;8.55;1.95;;;6.00;83.40;;;;;;5074366;28;20476;-38
2022/01/28 08:21:57;;;;;;;6.63;1.77;;;6.00;83.40;;;;;;5074249;28;20054;-38
2022/01/28 08:24:22;;;;;;;8.38;2.38;;;6.00;83.50;;;;;;5074144;28;20020;-38
2022/01/28 08:26:48;;;;;;;12.07;1.98;;;6.00;83.50;;;;;;5072834;28;20021;-38
2022/01/28 08:29:14;;;;;;;10.00;2.60;;;6.00;83.50;;;;;;5074099;28;20055;-37
2022/01/28 08:31:39;;;;;;;5.05;1.90;;;5.90;83.50;;;;;;5074265;28;20027;-38
2022/01/28 08:34:05;;;;;;;4.43;1.83;;;5.90;83.60;;;;;;5074108;28;20012;-38
2022/01/28 08:36:31;;;;;;;6.47;1.70;;;5.90;83.60;;;;;;5073887;28;20051;-38
2022/01/28 08:38:57;;;;;;;9.20;2.17;;;6.00;83.70;;;;;;5074057;28;20094;-38
2022/01/28 08:41:23;;;;;;;9.20;1.98;;;6.00;83.70;;;;;;5073900;28;20016;-39
2022/01/28 08:43:49;;;;;;;8.73;2.08;;;6.00;83.70;;;;;;5073792;28;20073;-38
2022/01/28 08:46:15;;;;;;;8.43;2.08;;;6.00;83.60;;;;;;5073843;28;20025;-37
2022/01/28 08:48:40;;;;;;;7.38;2.00;;;6.00;83.60;;;;;;5072384;28;20017;-36
2022/01/28 08:51:06;;;;;;;8.00;1.80;;;6.00;83.60;;;;;;5073748;28;20031;-38
2022/01/28 08:53:33;;;;;;;6.05;1.75;;;6.00;83.60;;;;;;5073840;28;20464;-37
2022/01/28 08:55:59;;;;;;;6.65;2.10;;;6.10;83.70;;;;;;5073257;28;20016;-38
2022/01/28 08:58:24;;;;;;;4.75;1.70;;;6.10;83.60;;;;;;5071793;28;20026;-38
2022/01/28 09:00:51;;;;;;;9.77;1.88;;;6.10;83.60;;;;;;5073434;28;20093;-36
2022/01/28 09:03:18;;;;;;;9.15;1.83;;;6.20;83.50;;;;;;5073516;28;20023;-37
2022/01/28 09:05:46;;;;;;;9.70;2.00;;;6.30;83.50;;;;;;5073376;28;20421;-38
2022/01/28 09:08:12;;;;;;;8.18;2.33;;;6.30;83.40;;;;;;5073300;28;20032;-36
2022/01/28 09:10:57;;;;;;;8.40;1.70;;;6.40;83.40;;;;;;5073591;28;20051;-36
2022/01/28 09:13:26;;;;;;;7.90;1.63;;;6.40;83.30;;;;;;5073277;28;20050;-38
2022/01/28 09:15:54;;;;;;;7.00;1.60;;;6.50;83.30;;;;;;5073239;28;20051;-36
2022/01/28 09:18:21;;;;;;;7.80;2.03;;;6.50;83.10;;;;;;5073228;28;20020;-37
2022/01/28 09:20:47;;;;;;;7.00;1.60;;;6.60;83.10;;;;;;5073302;28;20021;-37
2022/01/28 09:23:13;;;;;;;6.57;1.67;;;6.60;82.90;;;;;;5073100;28;20100;-41
2022/01/28 09:25:40;;;;;;;9.30;1.95;;;6.70;82.90;;;;;;5073079;28;20508;-37
2022/01/28 09:28:06;;;;;;;8.57;1.88;;;6.70;82.80;;;;;;5073070;28;20021;-38
2022/01/28 09:30:32;;;;;;;6.43;1.70;;;6.80;82.90;;;;;;5073422;28;20410;-37
2022/01/28 09:32:58;;;;;;;5.95;1.70;;;6.80;82.80;;;;;;5073203;28;20024;-39
2022/01/28 09:35:24;;;;;;;4.95;1.60;;;6.90;82.80;;;;;;5072821;28;20127;-39
2022/01/28 09:37:51;;;;;;;11.88;2.38;;;6.80;82.70;;;;;;5072987;28;20020;-38
2022/01/28 09:40:18;;;;;;;8.65;1.80;;;6.90;82.70;;;;;;5073047;28;20099;-36
2022/01/28 09:42:46;;;;;;;7.70;2.17;;;6.90;82.70;;;;;;5072958;28;20020;-38
2022/01/28 09:45:17;;;;;;;6.40;2.05;;;6.90;82.60;;;;;;5073180;28;20016;-37
2022/01/28 09:47:46;;;;;;;10.30;1.88;;;7.00;83.20;;;;;;5072057;28;20415;-37
2022/01/28 09:50:13;;;;;;;7.38;1.98;;;7.00;82.50;;;;;;5072988;28;20052;-38
2022/01/28 09:52:38;;;;;;;6.15;1.30;;;7.00;82.50;;;;;;5072902;28;20510;-37
2022/01/28 09:55:05;;;;;;;8.25;1.73;;;7.00;82.30;;;;;;5072944;28;20095;-38
2022/01/28 09:57:32;;;;;;;10.57;2.17;;;7.10;82.30;;;;;;5073252;28;20463;-39
2022/01/28 09:59:58;;;;;;;10.73;2.05;;;7.20;82.90;;;;;;5072996;28;20472;-36
2022/01/28 10:02:46;;;;;;;10.23;2.10;;;7.20;82.20;;;;;;5072864;28;20028;-38
2022/01/28 10:05:26;;;;;;;9.32;1.63;;;7.20;82.00;;;;;;5073024;28;20022;-38
2022/01/28 10:08:04;;;;;;;9.52;1.60;;;7.30;81.90;;;;;;5071986;28;20035;-38
2022/01/28 10:11:02;;;;;;;8.13;1.85;;;7.40;81.80;;;;;;5076862;28;20017;-38
2022/01/28 10:13:42;;;;;;;9.32;1.65;;;7.40;81.60;;;;;;5073836;28;20445;-38
2022/01/28 10:16:11;;;;;;;8.13;1.70;;;7.50;81.50;;;;;;5076908;28;20033;-38
2022/01/28 10:18:44;;;;;;;11.55;2.00;;;7.60;81.40;;;;;;5076506;28;20422;-37
2022/01/28 10:21:26;;;;;;;9.43;2.25;;;7.60;81.00;;;;;;5076630;28;20383;-39
2022/01/28 10:24:24;;;;;;;9.90;1.83;;;7.70;80.90;;;;;;5076536;28;20059;-38
2022/01/28 10:27:06;;;;;;;9.35;1.80;;;7.70;80.50;;;;;;5076432;28;20054;-38
2022/01/28 10:29:43;;;;;;;13.07;1.95;;;7.80;80.00;;;;;;5076712;28;20499;-37
2022/01/28 10:32:11;;;;;;;8.20;2.15;;;7.80;79.80;;;;;;5076539;28;20047;-38
2022/01/28 10:34:40;;;;;;;13.45;2.30;;;7.80;80.30;;;;;;5076170;28;20045;-37
2022/01/28 10:37:29;;;;;;;11.10;2.03;;;7.90;79.70;;;;;;5076218;28;20035;-36
2022/01/28 10:40:02;;;;;;;12.85;1.70;;;7.90;79.40;;;;;;5076221;28;20052;-38
2022/01/28 10:42:35;;;;;;;14.10;2.13;;;7.90;79.20;;;;;;5076452;28;20020;-39
2022/01/28 10:45:24;;;;;;;12.45;1.85;;;7.90;78.90;;;;;;5076423;28;20104;-39
2022/01/28 10:47:55;;;;;;;7.35;1.70;;;8.00;78.60;;;;;;5076053;28;20027;-38
2022/01/28 10:50:26;;;;;;;9.52;2.10;;;8.00;78.50;;;;;;5076023;28;20104;-39
2022/01/28 10:52:58;;;;;;;8.02;2.08;;;8.00;78.00;;;;;;5076235;28;20020;-39
2022/01/28 10:55:24;;;;;;;13.45;2.10;;;8.10;78.00;;;;;;5075883;28;20029;-39
2022/01/28 10:58:11;;;;;;;6.68;2.05;;;8.10;77.90;;;;;;5075896;28;20027;-39
2022/01/28 11:00:42;;;;;;;7.53;1.90;;;8.30;77.80;;;;;;5076072;28;20047;-38
2022/01/28 11:03:11;;;;;;;9.93;2.05;;;8.30;77.60;;;;;;5075851;28;20361;-37
2022/01/28 11:05:37;;;;;;;9.93;1.77;;;8.40;77.50;;;;;;5075909;28;20048;-38
2022/01/28 11:08:05;;;;;;;7.70;1.50;;;8.40;77.20;;;;;;5075757;28;20024;-37
2022/01/28 11:10:31;;;;;;;13.70;1.88;;;8.50;77.20;;;;;;5075964;28;20028;-37
2022/01/28 11:12:59;;;;;;;16.92;2.28;;;8.60;76.90;;;;;;5075627;28;20044;-37
2022/01/28 11:15:25;;;;;;;9.05;2.45;;;8.60;76.10;;;;;;5075672;28;20024;-38
2022/01/28 11:17:52;;;;;;;9.23;1.63;;;8.70;76.00;;;;;;5075532;28;20469;-37
2022/01/28 11:20:30;;;;;;;5.38;1.50;;;8.70;76.10;;;;;;5074904;28;20547;-37
2022/01/28 11:23:13;;;;;;;10.63;2.10;;;8.90;76.10;;;;;;5075775;28;20024;-37
2022/01/28 11:25:58;;;;;;;;;;;9.00;74.80;;;;;;5075817;28;20021;-37
2022/01/28 11:28:39;;;;;;;8.20;1.50;;;9.00;74.30;;;;;;5075299;28;20360;-37
2022/01/28 11:31:05;;;;;;;7.00;1.60;;;9.00;74.30;;;;;;5075246;28;20048;-37
2022/01/28 11:33:48;;;;;;;8.85;2.00;;;9.00;73.90;;;;;;5073815;28;20071;-38
2022/01/28 11:36:29;;;;;;;8.50;1.53;;;9.00;74.30;;;;;;5074795;28;20473;-38
2022/01/28 11:38:56;;;;;;;11.07;2.22;;;9.10;74.20;;;;;;5075000;28;20044;-39
2022/01/28 11:41:26;;;;;;;8.85;1.42;;;9.20;73.70;;;;;;5074945;28;20024;-38
2022/01/28 11:43:56;;;;;;;10.40;1.92;;;9.30;73.90;;;;;;5074936;28;20021;-37
2022/01/28 11:46:23;;;;;;;6.93;1.50;;;9.30;73.40;;;;;;5075070;28;20494;-40
2022/01/28 11:48:52;;;;;;;7.57;1.80;;;9.40;73.30;;;;;;5074771;28;20021;-40
2022/01/28 11:51:20;;;;;;;9.70;1.52;;;9.50;73.10;;;;;;5075009;28;20104;-41
2022/01/28 11:54:03;;;;;;;4.95;1.45;;;9.50;73.00;;;;;;5074613;28;20028;-38
2022/01/28 11:56:30;;;;;;;6.22;1.60;;;9.60;72.50;;;;;;5074959;28;20032;-38
2022/01/28 11:59:04;;;;;;;6.90;1.95;;;9.60;72.30;;;;;;5074710;28;20495;-38
2022/01/28 12:01:36;;;;;;;11.65;1.98;;;9.80;72.10;;;;;;5073316;28;20029;-37
2022/01/28 12:04:23;;;;;;;12.13;2.00;;;9.80;70.90;;;;;;5074471;28;20049;-38
2022/01/28 12:07:15;;;;;;;9.57;2.05;;;9.90;70.70;;;;;;5074382;28;20021;-39
2022/01/28 12:09:50;;;;;;;9.45;2.20;;;9.80;70.40;;;;;;5069666;28;20038;-39
2022/01/28 12:12:40;;;;;;;10.63;2.35;;;9.70;70.40;;;;;;5074448;28;20017;-39
2022/01/28 12:15:15;;;;;;;7.32;1.80;;;9.60;70.50;;;;;;5074481;28;20380;-39
2022/01/28 12:17:46;;;;;;;5.90;1.42;;;9.60;70.90;;;;;;5074304;28;20020;-38
2022/01/28 12:20:15;;;;;;;7.95;1.75;;;9.50;71.10;;;;;;5074716;28;20419;-39
2022/01/28 12:23:02;;;;;;;5.00;1.48;;;9.40;71.20;;;;;;5073041;28;20028;-38
2022/01/28 12:25:43;;;;;;;5.97;1.85;;;9.30;70.70;;;;;;5074239;28;20028;-39
2022/01/28 12:28:23;;;;;;;7.13;1.35;;;9.30;71.20;;;;;;5074464;28;20502;-40
2022/01/28 12:30:59;;;;;;;10.18;1.60;;;9.20;71.40;;;;;;5074050;28;20017;-38
2022/01/28 12:33:27;;;;;;;8.52;1.80;;;9.20;70.90;;;;;;5073872;28;20028;-38
2022/01/28 12:35:56;;;;;;;7.85;1.67;;;9.10;71.10;;;;;;5073789;28;20522;-38
2022/01/28 12:38:24;;;;;;;5.82;1.27;;;9.20;71.30;;;;;;5074185;28;20104;-39
2022/01/28 12:40:53;;;;;;;8.95;1.58;;;9.30;71.20;;;;;;5073975;28;20017;-39
2022/01/28 12:43:21;;;;;;;9.57;1.50;;;9.40;71.10;;;;;;5074208;28;20092;-40
2022/01/28 12:46:00;;;;;;;10.27;1.80;;;9.50;70.90;;;;;;5073966;28;20029;-39
2022/01/28 12:48:26;;;;;;;5.07;1.38;;;9.50;70.10;;;;;;5073801;28;20481;-39
2022/01/28 12:50:53;;;;;;;6.70;1.40;;;9.50;70.20;;;;;;5074023;28;20012;-40
2022/01/28 12:53:42;;;;;;;7.20;1.58;;;9.50;70.20;;;;;;5074038;28;20492;-39
2022/01/28 12:56:10;;;;;;;5.78;1.38;;;9.50;70.20;;;;;;5073621;28;20090;-39
2022/01/28 12:58:49;;;;;;;7.68;1.73;;;9.60;70.40;;;;;;5073612;28;20078;-38
2022/01/28 13:01:19;;;;;;;4.22;1.40;;;9.60;70.10;;;;;;5072457;28;20025;-39
2022/01/28 13:03:54;;;;;;;5.82;1.27;;;9.60;69.70;;;;;;5073614;28;20027;-40
2022/01/28 13:09:00;;;;;;;7.38;1.60;;;9.80;70.10;;;;;;5073905;28;20037;-40
2022/01/28 13:11:27;;;;;;;5.85;1.50;;;9.80;70.00;;;;;;5073470;28;20021;-39
2022/01/28 13:13:56;;;;;;;5.63;1.60;;;9.90;70.20;;;;;;5073626;28;20036;-39
2022/01/28 13:16:38;;;;;;;6.05;1.60;;;10.00;70.20;;;;;;5073641;28;20070;-39
2022/01/28 13:19:05;;;;;;;6.70;1.50;;;10.10;70.10;;;;;;5073550;28;20017;-40
2022/01/28 13:21:33;;;;;;;7.80;1.98;;;10.00;69.70;;;;;;5073580;28;20017;-39
2022/01/28 13:24:12;;;;;;;7.25;1.90;;;9.90;69.90;;;;;;5073418;28;20518;-39
2022/01/28 13:27:07;;;;;;;7.70;2.08;;;9.70;69.90;;;;;;5073566;28;20020;-39
2022/01/28 13:29:33;;;;;;;12.40;2.28;;;9.70;70.30;;;;;;5073459;28;20028;-39
2022/01/28 13:32:02;;;;;;;5.90;1.63;;;9.60;70.60;;;;;;5073182;28;20032;-39
2022/01/28 13:34:27;;;;;;;7.25;1.65;;;9.70;70.70;;;;;;5073269;28;20036;-39
2022/01/28 13:36:57;;;;;;;8.27;1.80;;;9.80;70.70;;;;;;5073346;28;20028;-38
2022/01/28 13:39:27;;;;;;;6.65;1.75;;;9.90;70.10;;;;;;5073437;28;20104;-39
2022/01/28 13:42:13;;;;;;;4.93;1.30;;;10.00;69.30;;;;;;5073280;28;20422;-39
2022/01/28 13:44:42;;;;;;;7.80;1.50;;;10.00;68.90;;;;;;5072998;28;20050;-38
2022/01/28 13:47:09;;;;;;;6.65;1.40;;;10.00;68.50;;;;;;5073074;28;20429;-39
2022/01/28 13:49:36;;;;;;;6.03;1.88;;;10.10;68.60;;;;;;5073108;28;20035;-39
2022/01/28 13:52:23;;;;;;;5.45;1.30;;;10.10;68.70;;;;;;5073030;28;20031;-40
2022/01/28 13:54:49;;;;;;;5.20;2.00;;;10.10;68.90;;;;;;5072100;28;20025;-39
2022/01/28 13:57:15;;;;;;;11.05;1.80;;;10.10;68.80;;;;;;5072977;28;20029;-39
2022/01/28 13:59:42;;;;;;;8.82;1.73;;;10.10;68.80;;;;;;5072893;28;20392;-39
2022/01/28 14:02:13;;;;;;;8.25;2.08;;;10.10;68.40;;;;;;5072877;28;20032;-39
2022/01/28 14:04:41;;;;;;;6.55;1.70;;;10.10;68.50;;;;;;5072805;28;20025;-37
2022/01/28 14:07:15;;;;;;;4.45;1.55;;;10.00;68.80;;;;;;5072924;28;20021;-39
2022/01/28 14:09:56;;;;;;;9.20;2.30;;;10.00;68.90;;;;;;5072792;28;20029;-38
2022/01/28 14:12:50;;;;;;;10.35;2.78;;;10.00;68.70;;;;;;5071501;28;20024;-38
2022/01/28 14:15:39;;;;;;;9.57;2.75;;;10.00;69.30;;;;;;5072999;28;20040;-39
2022/01/28 14:18:05;;;;;;;10.10;2.63;;;9.90;68.80;;;;;;5073009;28;20464;-38
2022/01/28 14:20:31;;;;;;;5.90;1.90;;;9.90;69.10;;;;;;5072868;28;20026;-39
2022/01/28 14:22:58;;;;;;;6.47;2.05;;;9.80;69.20;;;;;;5072548;28;20511;-38
2022/01/28 14:25:24;;;;;;;7.40;1.85;;;9.80;69.30;;;;;;5072849;28;20012;-38
2022/01/28 14:28:11;;;;;;;9.20;2.05;;;9.80;69.20;;;;;;5072571;28;20032;-39
2022/01/28 14:30:39;;;;;;;9.77;1.90;;;9.80;69.30;;;;;;5072746;28;20460;-38
2022/01/28 14:33:06;;;;;;;6.60;1.80;;;9.80;69.60;;;;;;5072748;28;20090;-38
2022/01/28 14:35:32;;;;;;;5.68;1.30;;;9.80;69.80;;;;;;5072260;28;20056;-39